Time;durP1;ratioP1;P1;durP2;ratioP2;P2;SDS_P1;SDS_P2;PMS_P1;PMS_P2;Temp;Humidity;BMP_temperature;BMP_pressure;BME280_temperature;BME280_humidity;BME280_pressure;Samples;Min_cycle;Max_cycle;Signal;HPM_P1;HPM_P2
2022/06/21 00:15:14;;;;;;;4.22;1.32;;;;;;;16.33;90.22;98515.28;3610423;96;21656;-86
2022/06/21 00:28:48;;;;;;;2.62;1.30;;;;;;;16.05;90.17;98539.88;3725842;86;21166;-86
2022/06/21 00:50:09;;;;;;;3.75;1.62;;;;;;;15.78;90.07;98520.64;4204706;83;21070;-87
2022/06/21 00:57:16;;;;;;;5.75;1.72;;;;;;;15.69;90.31;98533.58;4181272;83;21093;-85
2022/06/21 01:26:04;;;;;;;3.37;1.93;;;;;;;15.11;89.30;98536.06;4060384;86;21019;-86
2022/06/21 01:40:46;;;;;;;2.50;1.52;;;;;;;15.01;89.09;98533.62;4195736;83;21172;-86
2022/06/21 03:02:46;;;;;;;7.45;2.67;;;;;;;14.61;87.80;98573.72;4049398;85;21690;-85
2022/06/21 03:37:48;;;;;;;3.98;3.08;;;;;;;14.62;88.34;98596.72;4029563;86;21414;-86
2022/06/21 04:03:58;;;;;;;4.72;3.25;;;;;;;14.88;86.16;98610.37;4569502;75;22194;-89
2022/06/21 04:10:06;;;;;;;4.65;3.12;;;;;;;14.57;86.47;98613.69;4502399;77;21064;-87
2022/06/21 04:16:46;;;;;;;4.87;3.15;;;;;;;14.38;85.96;98618.41;4480344;77;21613;-86
2022/06/21 04:23:22;;;;;;;4.60;2.90;;;;;;;14.35;86.08;98608.22;4513064;77;21227;-88
2022/06/21 04:29:30;;;;;;;4.97;3.12;;;;;;;14.34;85.72;98605.28;4504460;77;21052;-89
2022/06/21 04:35:52;;;;;;;6.85;3.95;;;;;;;14.39;85.95;98601.30;4495930;77;21062;-89
2022/06/21 04:42:16;;;;;;;4.80;4.10;;;;;;;14.39;85.82;98595.80;4491136;77;21024;-90
2022/06/21 04:48:40;;;;;;;10.93;4.35;;;;;;;14.46;86.13;98608.09;4509941;77;21550;-88
2022/06/21 04:54:42;;;;;;;8.08;4.30;;;;;;;14.58;86.10;98599.33;4505315;77;21073;-87
2022/06/21 05:00:44;;;;;;;9.20;5.75;;;;;;;14.58;85.96;98602.08;4474307;77;22082;-88
2022/06/21 05:06:47;;;;;;;6.22;4.33;;;;;;;14.57;85.50;98606.01;4456538;77;21056;-88
2022/06/21 05:12:52;;;;;;;11.70;4.58;;;;;;;14.56;85.83;98614.89;4465194;77;22274;-89
2022/06/21 05:19:09;;;;;;;9.93;5.50;;;;;;;14.62;85.81;98621.51;4465304;77;21033;-87
2022/06/21 05:25:31;;;;;;;7.80;4.53;;;;;;;14.80;85.21;98626.20;4459403;77;21054;-88
2022/06/21 05:31:41;;;;;;;8.13;4.60;;;;;;;14.93;85.64;98627.83;4459850;77;21110;-88
2022/06/21 05:38:00;;;;;;;5.70;4.12;;;;;;;15.03;85.10;98621.42;4459326;77;27185;-89
2022/06/21 05:44:23;;;;;;;8.70;5.70;;;;;;;15.09;85.01;98628.03;4367069;81;22366;-87
2022/06/21 05:50:32;;;;;;;8.20;4.37;;;;;;;15.10;84.50;98631.75;4371387;81;22167;-88
2022/06/21 05:56:35;;;;;;;10.85;4.90;;;;;;;15.00;84.25;98631.89;4368655;80;21012;-88
2022/06/21 06:02:45;;;;;;;7.03;4.05;;;;;;;14.93;84.46;98626.45;4379702;79;21094;-87
2022/06/21 06:08:53;;;;;;;5.20;3.92;;;;;;;14.86;84.07;98630.69;4386532;81;21043;-89
2022/06/21 06:15:10;;;;;;;9.98;3.50;;;;;;;14.96;83.65;98631.93;4364436;81;21030;-88
2022/06/21 06:21:28;;;;;;;28.70;5.65;;;;;;;15.14;83.07;98629.72;4384582;79;21055;-90
2022/06/21 06:40:54;;;;;;;12.63;3.65;;;;;;;15.06;81.42;98627.48;4023112;87;22030;-84
2022/06/21 06:47:38;;;;;;;;;;;;;;;;;;;;;
2022/06/21 06:54:01;;;;;;;7.60;2.87;;;;;;;15.59;81.29;98627.56;4072884;86;38421;-86
2022/06/21 07:14:01;;;;;;;5.85;2.20;;;;;;;16.26;78.32;98625.88;3740156;94;21192;-87
2022/06/21 07:33:58;;;;;;;3.95;1.72;;;;;;;16.96;75.13;98625.95;3655608;95;21207;-86
2022/06/21 07:40:27;;;;;;;3.40;1.40;;;;;;;17.43;74.21;98630.69;3690184;91;21691;-86
2022/06/21 07:47:12;;;;;;;3.10;1.35;;;;;;;17.11;72.21;98643.83;3817290;90;21158;-86
2022/06/21 07:54:18;;;;;;;3.12;1.12;;;;;;;17.27;72.07;98643.70;3935291;90;20983;-86
2022/06/21 08:07:29;;;;;;;3.67;1.27;;;;;;;16.93;70.17;98653.08;3944456;89;21138;-86
2022/06/21 08:13:30;;;;;;;3.22;0.93;;;;;;;16.68;69.39;98651.39;3946343;88;21111;-85
2022/06/21 08:20:06;;;;;;;2.85;1.05;;;;;;;16.60;69.02;98647.19;3945015;88;21154;-85
2022/06/21 08:26:30;;;;;;;1.42;1.25;;;;;;;16.45;68.80;98655.57;3940279;88;21142;-85
2022/06/21 08:55:09;;;;;;;;;;;;;;;17.58;67.26;98667.16;3946744;89;21007;-85
2022/06/21 09:22:43;;;;;;;3.25;1.20;;;;;;;17.02;65.08;98680.17;3853477;90;21084;-86
2022/06/21 09:29:32;;;;;;;8.95;1.22;;;;;;;17.18;64.27;98687.14;3939998;88;21170;-86
2022/06/21 09:36:14;;;;;;;7.15;1.00;;;;;;;17.71;63.18;98684.67;3754970;93;21071;-86
2022/06/21 09:49:45;;;;;;;1.90;0.88;;;;;;;17.61;63.33;98696.16;3756955;93;21476;-86
2022/06/21 10:03:10;;;;;;;2.72;0.80;;;;;;;17.05;63.10;98689.00;3836835;92;21965;-87
2022/06/21 10:09:29;;;;;;;7.30;1.32;;;;;;;16.72;63.01;98692.20;3814840;92;21068;-85
2022/06/21 10:15:39;;;;;;;2.40;0.90;;;;;;;16.92;63.35;98694.97;3842427;89;21556;-85
2022/06/21 10:22:05;;;;;;;3.95;1.00;;;;;;;17.93;62.90;98689.91;3946368;89;21240;-85
2022/06/21 10:28:41;;;;;;;4.87;0.90;;;;;;;18.36;62.03;98680.73;3948598;89;21099;-87
2022/06/21 10:57:15;;;;;;;8.65;1.50;;;;;;;17.84;61.35;98702.95;3945613;89;21085;-86
2022/06/21 11:03:44;;;;;;;13.13;2.20;;;;;;;17.94;61.21;98706.09;3882964;90;21636;-87
2022/06/21 11:10:32;;;;;;;4.67;1.20;;;;;;;17.78;60.99;98710.20;3885653;90;21710;-86
2022/06/21 11:17:30;;;;;;;2.77;1.22;;;;;;;17.68;61.03;98706.30;3733981;94;21700;-87
2022/06/21 11:24:38;;;;;;;2.90;1.10;;;;;;;17.20;60.70;98709.62;3535428;98;21272;-86
2022/06/21 11:37:48;;;;;;;2.70;0.90;;;;;;;16.89;60.91;98711.81;3768330;88;20140;-87
2022/06/21 11:43:57;;;;;;;1.87;0.80;;;;;;;17.70;60.86;98695.55;3963496;88;21113;-86
2022/06/21 11:57:02;;;;;;;3.35;1.00;;;;;;;17.68;60.27;98700.77;3941307;89;21118;-86
2022/06/21 12:03:17;;;;;;;4.95;1.10;;;;;;;18.21;60.67;98701.08;3946531;88;21093;-87
2022/06/21 12:16:37;;;;;;;5.60;1.40;;;;;;;17.42;60.87;98712.14;3843541;90;21090;-87
2022/06/21 12:22:53;;;;;;;4.17;1.12;;;;;;;17.25;61.28;98702.22;3999403;89;21099;-86
2022/06/21 12:29:20;;;;;;;2.95;1.00;;;;;;;17.46;61.01;98703.19;3943677;88;21118;-85
2022/06/21 12:43:11;;;;;;;7.00;1.57;;;;;;;17.79;60.06;98709.61;3946976;88;21792;-86
2022/06/21 12:57:32;;;;;;;4.20;1.42;;;;;;;17.26;60.83;98707.92;3957120;88;21069;-86
2022/06/21 13:04:35;;;;;;;4.47;1.25;;;;;;;17.78;60.71;98692.80;3970750;89;52064;-86
2022/06/21 13:11:22;;;;;;;2.95;1.07;;;;;;;18.20;60.46;98687.66;3956278;89;21398;-85
2022/06/21 13:18:07;;;;;;;9.63;1.47;;;;;;;18.53;60.47;98679.53;3964243;89;21049;-86
2022/06/21 13:24:56;;;;;;;8.05;1.40;;;;;;;18.61;60.25;98687.25;3955325;89;21188;-86
2022/06/21 13:37:52;;;;;;;6.03;1.15;;;;;;;18.35;60.31;98682.72;3953310;89;21022;-86
2022/06/21 13:44:47;;;;;;;4.55;1.10;;;;;;;18.48;60.09;98676.69;3916370;89;21054;-88
2022/06/21 13:51:15;;;;;;;3.92;1.10;;;;;;;18.52;59.55;98689.08;4032003;87;21048;-88
2022/06/21 13:57:56;;;;;;;7.67;1.05;;;;;;;18.31;59.06;98688.17;4030605;87;21060;-87
2022/06/21 14:04:13;;;;;;;7.95;1.00;;;;;;;18.45;58.13;98686.47;4042759;87;21610;-87
2022/06/21 20:24:46;;;;;;;5.08;3.10;;;;;;;14.58;68.66;98708.89;4533974;77;22742;-85
2022/06/21 20:31:00;;;;;;;4.92;2.83;;;;;;;14.42;69.35;98717.52;4343447;80;21016;-84
2022/06/21 20:37:37;;;;;;;7.35;3.30;;;;;;;14.34;69.16;98721.52;4417826;79;21365;-85
2022/06/21 20:43:52;;;;;;;4.65;3.22;;;;;;;14.24;69.76;98730.05;4420585;79;21061;-85
2022/06/21 20:50:12;;;;;;;4.03;2.52;;;;;;;14.14;70.44;98721.27;4392716;79;21045;-84
2022/06/21 20:56:24;;;;;;;8.05;2.95;;;;;;;13.99;70.45;98717.82;4423840;79;21084;-84
2022/06/21 21:02:46;;;;;;;4.47;2.62;;;;;;;14.01;70.91;98718.20;4403173;79;21074;-84
2022/06/21 21:16:07;;;;;;;6.85;3.12;;;;;;;13.95;72.10;98710.78;4415059;79;21047;-84
2022/06/21 21:28:56;;;;;;;8.05;3.33;;;;;;;13.71;72.96;98711.13;4414048;79;21055;-84
2022/06/21 21:35:30;;;;;;;7.60;3.98;;;;;;;13.60;73.57;98709.03;4413741;78;21091;-84
2022/06/21 21:48:42;;;;;;;9.40;4.53;;;;;;;13.33;73.23;98711.30;4401550;79;21020;-84
2022/06/21 21:55:04;;;;;;;7.80;4.30;;;;;;;13.11;73.31;98711.23;4415930;79;21088;-84
2022/06/21 22:08:14;;;;;;;6.95;4.37;;;;;;;12.74;73.90;98713.05;4389194;78;21118;-83
2022/06/21 22:21:31;;;;;;;12.15;4.65;;;;;;;12.58;74.80;98709.94;4237070;82;22226;-83
2022/06/21 22:27:39;;;;;;;7.05;4.70;;;;;;;12.51;75.21;98707.22;4394470;79;21003;-84
2022/06/21 22:34:09;;;;;;;6.83;4.90;;;;;;;12.52;75.49;98713.68;4413430;79;21074;-84
2022/06/21 22:40:31;;;;;;;7.97;4.50;;;;;;;12.54;75.84;98720.91;4411847;79;21051;-82
2022/06/21 23:06:23;;;;;;;6.47;4.65;;;;;;;12.48;76.93;98723.10;4209199;82;21148;-82
2022/06/21 23:12:24;;;;;;;13.30;4.85;;;;;;;12.45;77.22;98719.16;4177390;83;21006;-83
2022/06/21 23:18:44;;;;;;;7.08;4.33;;;;;;;12.40;76.97;98709.19;4238248;82;21021;-83
2022/06/21 23:25:07;;;;;;;7.95;4.60;;;;;;;12.38;77.47;98721.93;4287205;81;21012;-84
2022/06/21 23:31:15;;;;;;;6.35;4.08;;;;;;;12.46;78.09;98715.27;4276973;81;21025;-83
2022/06/21 23:37:24;;;;;;;7.65;5.58;;;;;;;12.46;78.53;98712.52;4295088;80;20992;-83
2022/06/21 23:44:06;;;;;;;11.25;6.22;;;;;;;12.45;78.79;98705.44;4291480;81;21057;-83
2022/06/21 23:50:19;;;;;;;15.08;6.15;;;;;;;12.30;78.38;98697.03;4444660;78;20988;-82
2022/06/21 23:56:24;;;;;;;9.90;5.53;;;;;;;12.26;78.91;98685.86;4403529;78;21792;-83
